createdAt,value
2023-01-19T00:00:55.913Z,98730.00
2023-01-19T00:03:22.855Z,98728.00
2023-01-19T00:05:49.874Z,98731.00
2023-01-19T00:08:17.762Z,98729.00
2023-01-19T00:10:51.213Z,98731.00
2023-01-19T00:13:18.210Z,98736.00
2023-01-19T00:15:45.620Z,98715.00
2023-01-19T00:18:12.964Z,98728.00
2023-01-19T00:20:40.837Z,98726.00
2023-01-19T00:23:08.236Z,98746.00
2023-01-19T00:25:36.490Z,98757.00
2023-01-19T00:28:03.584Z,98759.00
2023-01-19T00:30:30.661Z,98768.00
2023-01-19T00:32:58.471Z,98774.00
2023-01-19T00:35:25.737Z,98792.00
2023-01-19T00:37:52.760Z,98794.00
2023-01-19T00:40:19.852Z,98797.00
2023-01-19T00:42:48.452Z,98793.00
2023-01-19T00:45:19.920Z,98804.00
2023-01-19T00:47:49.426Z,98787.00
2023-01-19T00:50:17.646Z,98826.00
2023-01-19T00:52:45.429Z,98825.00
2023-01-19T00:55:15.357Z,98833.00
2023-01-19T00:57:43.435Z,98843.00
2023-01-19T01:00:15.027Z,98862.00
2023-01-19T01:02:44.670Z,98867.00
2023-01-19T01:05:13.140Z,98875.00
2023-01-19T01:07:41.714Z,98880.00
2023-01-19T01:10:21.453Z,98874.00
2023-01-19T01:12:55.634Z,98871.00
2023-01-19T01:15:26.962Z,98884.00
2023-01-19T01:17:54.406Z,98884.00
2023-01-19T01:20:26.999Z,98886.00
2023-01-19T01:22:55.420Z,98887.00
2023-01-19T01:25:24.960Z,98888.00
2023-01-19T01:27:52.543Z,98892.00
2023-01-19T01:30:20.309Z,98893.00
2023-01-19T01:32:47.215Z,98895.00
2023-01-19T01:35:14.648Z,98881.00
2023-01-19T01:37:42.906Z,98905.00
2023-01-19T01:40:14.161Z,98901.00
2023-01-19T01:42:42.579Z,98910.00
2023-01-19T01:45:36.024Z,98909.00
2023-01-19T01:48:22.295Z,98913.00
2023-01-19T01:51:18.507Z,98900.00
2023-01-19T01:53:50.046Z,98906.00
2023-01-19T01:56:27.680Z,98911.00
2023-01-19T01:58:54.812Z,98822.00
2023-01-19T02:01:40.953Z,98878.00
2023-01-19T02:04:08.058Z,98892.00
2023-01-19T02:06:53.952Z,98892.00
2023-01-19T02:09:40.972Z,98900.00
2023-01-19T02:12:26.407Z,98906.00
2023-01-19T02:14:55.502Z,98908.00
2023-01-19T02:17:22.687Z,98903.00
2023-01-19T02:19:49.715Z,98911.00
2023-01-19T02:22:31.878Z,98915.00
2023-01-19T02:24:58.951Z,98916.00
2023-01-19T02:27:25.955Z,98917.00
2023-01-19T02:29:53.296Z,98928.00
2023-01-19T02:32:20.251Z,98932.00
2023-01-19T02:34:47.178Z,98936.00
2023-01-19T02:37:18.438Z,98937.00
2023-01-19T02:40:01.708Z,98946.00
2023-01-19T02:42:44.474Z,98946.00
2023-01-19T02:45:19.672Z,98950.00
2023-01-19T02:47:51.447Z,98944.00
2023-01-19T02:50:39.041Z,98947.00
2023-01-19T02:53:56.622Z,98939.00
2023-01-19T02:56:37.948Z,98957.00
2023-01-19T02:59:24.856Z,98959.00
2023-01-19T03:02:12.913Z,98951.00
2023-01-19T03:04:59.419Z,98924.00
2023-01-19T03:07:47.277Z,98958.00
2023-01-19T03:11:00.563Z,98966.00
2023-01-19T03:13:54.071Z,98958.00
2023-01-19T03:16:25.208Z,98961.00
2023-01-19T03:19:05.663Z,98961.00
2023-01-19T03:21:37.317Z,98962.00
2023-01-19T03:24:08.645Z,98961.00
2023-01-19T03:26:44.013Z,98961.00
2023-01-19T03:29:15.387Z,98965.00
2023-01-19T03:31:47.277Z,98970.00
2023-01-19T03:34:17.325Z,98981.00
2023-01-19T03:36:51.381Z,98978.00
2023-01-19T03:39:24.130Z,98981.00
2023-01-19T03:41:57.513Z,98986.00
2023-01-19T03:44:29.149Z,98990.00
2023-01-19T03:46:59.101Z,98985.00
2023-01-19T03:49:26.683Z,98984.00
2023-01-19T03:51:58.859Z,98978.00
2023-01-19T03:54:26.659Z,98964.00
2023-01-19T03:56:54.043Z,98971.00
2023-01-19T03:59:22.106Z,98973.00
2023-01-19T04:01:49.634Z,98976.00
2023-01-19T04:04:16.856Z,98982.00
2023-01-19T04:06:44.194Z,98955.00
2023-01-19T04:09:11.178Z,98980.00
2023-01-19T04:11:39.229Z,98983.00
2023-01-19T04:14:06.248Z,98988.00
2023-01-19T04:16:33.086Z,98981.00
2023-01-19T04:19:00.001Z,98988.00
2023-01-19T04:21:26.877Z,98989.00
2023-01-19T04:23:54.226Z,98986.00
2023-01-19T04:26:21.141Z,98962.00
2023-01-19T04:28:47.997Z,98996.00
2023-01-19T04:31:14.986Z,98995.00
2023-01-19T04:33:41.956Z,98986.00
2023-01-19T04:36:09.072Z,98994.00
2023-01-19T04:38:36.084Z,98988.00
2023-01-19T04:41:03.030Z,98993.00
2023-01-19T04:43:30.110Z,98998.00
2023-01-19T04:45:57.045Z,98996.00
2023-01-19T04:48:23.931Z,98993.00
2023-01-19T04:50:52.550Z,98990.00
2023-01-19T04:53:19.551Z,98987.00
2023-01-19T04:55:46.809Z,98992.00
2023-01-19T04:58:13.907Z,98987.00
2023-01-19T05:00:40.743Z,98995.00
2023-01-19T05:03:07.882Z,98976.00
2023-01-19T05:05:34.959Z,98976.00
2023-01-19T05:08:01.845Z,98970.00
2023-01-19T05:10:29.109Z,98961.00
2023-01-19T05:12:56.071Z,98970.00
2023-01-19T05:15:23.628Z,98978.00
2023-01-19T05:17:51.009Z,98964.00
2023-01-19T05:20:18.226Z,98993.00
2023-01-19T05:22:53.348Z,98979.00
2023-01-19T05:25:20.551Z,98975.00
2023-01-19T05:27:48.062Z,98979.00
2023-01-19T05:30:15.384Z,98988.00
2023-01-19T05:32:42.475Z,98995.00
2023-01-19T05:35:13.492Z,98997.00
2023-01-19T05:37:41.008Z,98999.00
2023-01-19T05:40:09.394Z,99000.00
2023-01-19T05:42:37.200Z,99001.00
2023-01-19T05:45:05.783Z,98999.00
2023-01-19T05:47:32.630Z,99025.00
2023-01-19T05:49:59.479Z,99030.00
2023-01-19T05:52:26.352Z,99033.00
2023-01-19T05:54:55.177Z,99047.00
2023-01-19T05:57:23.145Z,98963.00
2023-01-19T05:59:50.080Z,99047.00
2023-01-19T06:02:17.245Z,99036.00
2023-01-19T06:04:44.857Z,99043.00
2023-01-19T06:07:11.863Z,99031.00
2023-01-19T06:09:38.737Z,99038.00
2023-01-19T06:12:06.333Z,99038.00
2023-01-19T06:14:33.275Z,99041.00
2023-01-19T06:17:00.110Z,99043.00
2023-01-19T06:19:27.076Z,99044.00
2023-01-19T06:21:53.931Z,99028.00
2023-01-19T06:24:20.869Z,99048.00
2023-01-19T06:26:47.761Z,99038.00
2023-01-19T06:29:15.193Z,99042.00
2023-01-19T06:31:42.351Z,99055.00
2023-01-19T06:34:10.207Z,99024.00
2023-01-19T06:36:37.369Z,99059.00
2023-01-19T06:39:06.012Z,99073.00
2023-01-19T06:41:33.918Z,99074.00
2023-01-19T06:44:01.376Z,99043.00
2023-01-19T06:46:29.033Z,99080.00
2023-01-19T06:48:56.260Z,99075.00
2023-01-19T06:51:23.927Z,99071.00
2023-01-19T06:53:50.970Z,99089.00
2023-01-19T06:56:17.921Z,99091.00
2023-01-19T06:58:48.282Z,99106.00
2023-01-19T07:01:15.596Z,99116.00
2023-01-19T07:03:42.631Z,99129.00
2023-01-19T07:06:09.888Z,99134.00
2023-01-19T07:08:37.877Z,99151.00
2023-01-19T07:11:24.948Z,99156.00
2023-01-19T07:13:58.499Z,99147.00
2023-01-19T07:16:25.573Z,99163.00
2023-01-19T07:18:52.782Z,99169.00
2023-01-19T07:21:19.827Z,99169.00
2023-01-19T07:23:53.489Z,99159.00
2023-01-19T07:26:22.190Z,99180.00
2023-01-19T07:28:49.650Z,99188.00
2023-01-19T07:31:18.020Z,99193.00
2023-01-19T07:33:46.002Z,99200.00
2023-01-19T07:36:13.699Z,99197.00
2023-01-19T07:38:40.611Z,99198.00
2023-01-19T07:41:10.016Z,99206.00
2023-01-19T07:43:37.045Z,99215.00
2023-01-19T07:46:06.556Z,99215.00
2023-01-19T07:48:33.819Z,99208.00
2023-01-19T07:51:05.428Z,99205.00
2023-01-19T07:53:32.892Z,99210.00
2023-01-19T07:56:00.185Z,99217.00
2023-01-19T07:58:27.567Z,99188.00
2023-01-19T08:00:54.784Z,99226.00
2023-01-19T08:03:21.918Z,99221.00
2023-01-19T08:05:53.552Z,99211.00
2023-01-19T08:08:20.775Z,99229.00
2023-01-19T08:10:51.494Z,99236.00
2023-01-19T08:13:18.781Z,99227.00
2023-01-19T08:15:49.288Z,99231.00
2023-01-19T08:18:16.565Z,99229.00
2023-01-19T08:20:43.710Z,99237.00
2023-01-19T08:23:10.871Z,99244.00
2023-01-19T08:25:44.363Z,99249.00
2023-01-19T08:28:16.128Z,99235.00
2023-01-19T08:30:45.004Z,99216.00
2023-01-19T08:33:13.328Z,99247.00
2023-01-19T08:35:43.439Z,99267.00
2023-01-19T08:38:10.893Z,99256.00
2023-01-19T08:40:40.235Z,99255.00
2023-01-19T08:43:16.353Z,99241.00
2023-01-19T08:45:51.863Z,99223.00
2023-01-19T08:48:22.430Z,99221.00
2023-01-19T08:50:54.024Z,99248.00
2023-01-19T08:53:23.614Z,99247.00
2023-01-19T08:55:57.376Z,99254.00
2023-01-19T08:58:24.343Z,99252.00
2023-01-19T09:00:52.635Z,99254.00
2023-01-19T09:03:22.629Z,99259.00
2023-01-19T09:05:50.425Z,99255.00
2023-01-19T09:08:18.124Z,99262.00
2023-01-19T09:10:49.316Z,99245.00
2023-01-19T09:13:17.597Z,99253.00
2023-01-19T09:15:45.430Z,99268.00
2023-01-19T09:18:21.175Z,99265.00
2023-01-19T09:20:50.765Z,99269.00
2023-01-19T09:23:20.388Z,99273.00
2023-01-19T09:25:48.047Z,99265.00
2023-01-19T09:28:17.646Z,99250.00
2023-01-19T09:30:45.311Z,99247.00
2023-01-19T09:33:17.817Z,99276.00
2023-01-19T09:35:47.166Z,99277.00
2023-01-19T09:38:19.795Z,99275.00
2023-01-19T09:40:59.432Z,99277.00
2023-01-19T09:43:47.747Z,99287.00
2023-01-19T09:46:25.249Z,99285.00
2023-01-19T09:48:58.469Z,99289.00
2023-01-19T09:51:36.157Z,99282.00
2023-01-19T09:54:22.020Z,99282.00
2023-01-19T09:56:52.448Z,99275.00
2023-01-19T09:59:31.859Z,99271.00
2023-01-19T10:02:21.727Z,99268.00
2023-01-19T10:05:00.653Z,99272.00
2023-01-19T10:08:08.324Z,99273.00
2023-01-19T10:10:37.873Z,99275.00
2023-01-19T10:13:47.068Z,99269.00
2023-01-19T10:16:22.745Z,99268.00
2023-01-19T10:18:54.024Z,99239.00
2023-01-19T10:21:31.370Z,99268.00
2023-01-19T10:24:18.356Z,99268.00
2023-01-19T10:26:54.934Z,99264.00
2023-01-19T10:29:28.225Z,99254.00
2023-01-19T10:32:27.151Z,99263.00
2023-01-19T10:34:55.731Z,99259.00
2023-01-19T10:37:37.930Z,99236.00
2023-01-19T10:40:10.554Z,99269.00
2023-01-19T10:42:40.565Z,99258.00
2023-01-19T10:45:30.048Z,99256.00
2023-01-19T10:48:07.193Z,99256.00
2023-01-19T10:50:39.843Z,99250.00
2023-01-19T10:53:20.771Z,99262.00
2023-01-19T10:55:48.140Z,99261.00
2023-01-19T10:58:35.156Z,99253.00
2023-01-19T11:01:23.087Z,99252.00
2023-01-19T11:03:50.971Z,99260.00
2023-01-19T11:06:28.139Z,99254.00
2023-01-19T11:09:21.158Z,99256.00
2023-01-19T11:11:52.261Z,99259.00
2023-01-19T11:14:23.502Z,99255.00
2023-01-19T11:16:56.061Z,99261.00
2023-01-19T11:19:33.244Z,99273.00
2023-01-19T11:22:33.784Z,99237.00
2023-01-19T11:25:04.849Z,99265.00
2023-01-19T11:27:37.000Z,99263.00
2023-01-19T11:30:16.890Z,99271.00
2023-01-19T11:32:43.845Z,99267.00
2023-01-19T11:35:36.664Z,99280.00
2023-01-19T11:38:12.538Z,99289.00
2023-01-19T11:40:46.375Z,99279.00
2023-01-19T11:43:13.960Z,99279.00
2023-01-19T11:45:41.529Z,99282.00
2023-01-19T11:48:23.707Z,99273.00
2023-01-19T11:50:51.281Z,99267.00
2023-01-19T11:53:29.242Z,99278.00
2023-01-19T11:56:09.895Z,99272.00
2023-01-19T11:58:44.439Z,99275.00
2023-01-19T12:01:27.349Z,99266.00
2023-01-19T12:04:17.376Z,99264.00
2023-01-19T12:06:53.154Z,99263.00
2023-01-19T12:09:27.440Z,99260.00
2023-01-19T12:12:32.130Z,99258.00
2023-01-19T12:15:38.803Z,99266.00
2023-01-19T12:18:13.688Z,99262.00
2023-01-19T12:20:47.069Z,99252.00
2023-01-19T12:23:55.491Z,99263.00
2023-01-19T12:26:40.851Z,99257.00
2023-01-19T12:29:17.503Z,99271.00
2023-01-19T12:31:44.564Z,99267.00
2023-01-19T12:34:46.601Z,99267.00
2023-01-19T12:37:31.434Z,99264.00
2023-01-19T12:40:18.420Z,99267.00
2023-01-19T12:42:51.824Z,99267.00
2023-01-19T12:45:25.612Z,99261.00
2023-01-19T12:47:56.489Z,99263.00
2023-01-19T12:50:29.615Z,99262.00
2023-01-19T12:53:02.658Z,99264.00
2023-01-19T12:55:46.487Z,99281.00
2023-01-19T12:58:23.423Z,99266.00
2023-01-19T13:01:19.151Z,99271.00
2023-01-19T13:04:01.940Z,99275.00
2023-01-19T13:06:47.182Z,99269.00
2023-01-19T13:09:33.322Z,99272.00
2023-01-19T13:12:15.148Z,99270.00
2023-01-19T13:14:43.744Z,99265.00
2023-01-19T13:17:31.588Z,99257.00
2023-01-19T13:20:27.478Z,99267.00
2023-01-19T13:23:46.507Z,99269.00
2023-01-19T13:26:17.654Z,99274.00
2023-01-19T13:28:49.903Z,99278.00
2023-01-19T13:31:18.249Z,99277.00
2023-01-19T13:33:56.787Z,99274.00
2023-01-19T13:36:38.638Z,99284.00
2023-01-19T13:39:16.534Z,99271.00
2023-01-19T13:41:46.639Z,99280.00
2023-01-19T13:44:33.102Z,99280.00
2023-01-19T13:47:03.699Z,99283.00
2023-01-19T13:49:41.505Z,99283.00
2023-01-19T13:52:22.972Z,99284.00
2023-01-19T13:55:02.480Z,99276.00
2023-01-19T13:57:32.713Z,99286.00
2023-01-19T14:00:06.582Z,99294.00
2023-01-19T14:02:34.145Z,99299.00
2023-01-19T14:05:42.370Z,99310.00
2023-01-19T14:08:11.256Z,99305.00
2023-01-19T14:11:02.430Z,99300.00
2023-01-19T14:13:33.638Z,99298.00
2023-01-19T14:16:08.478Z,99305.00
2023-01-19T14:18:36.684Z,99304.00
2023-01-19T14:21:09.780Z,99305.00
2023-01-19T14:23:48.381Z,99300.00
2023-01-19T14:26:49.393Z,99299.00
2023-01-19T14:29:27.666Z,99300.00
2023-01-19T14:32:00.565Z,99297.00
2023-01-19T14:34:39.129Z,99299.00
2023-01-19T14:37:22.315Z,99309.00
2023-01-19T14:39:51.928Z,99311.00
2023-01-19T14:42:27.751Z,99321.00
2023-01-19T14:44:59.431Z,99313.00
2023-01-19T14:47:39.671Z,99313.00
2023-01-19T14:50:22.288Z,99313.00
2023-01-19T14:53:07.411Z,99233.00
2023-01-19T14:55:57.249Z,99313.00
2023-01-19T14:58:27.540Z,99322.00
2023-01-19T15:00:55.819Z,99310.00
2023-01-19T15:03:31.910Z,99315.00
2023-01-19T15:06:20.245Z,99313.00
2023-01-19T15:08:48.859Z,99319.00
2023-01-19T15:11:24.308Z,99322.00
2023-01-19T15:13:51.724Z,99322.00
2023-01-19T15:16:19.417Z,99324.00
2023-01-19T15:18:46.387Z,99320.00
2023-01-19T15:21:23.661Z,99329.00
2023-01-19T15:23:50.766Z,99327.00
2023-01-19T15:26:21.530Z,99327.00
2023-01-19T15:28:49.479Z,99330.00
2023-01-19T15:31:23.670Z,99330.00
2023-01-19T15:33:50.612Z,99338.00
2023-01-19T15:36:24.683Z,99333.00
2023-01-19T15:59:54.518Z,99347.00
2023-01-19T16:02:21.615Z,99350.00
2023-01-19T16:04:50.175Z,99350.00
2023-01-19T16:07:17.036Z,99351.00
2023-01-19T16:09:43.907Z,99348.00
2023-01-19T16:12:10.783Z,99352.00
2023-01-19T16:14:37.606Z,99352.00
2023-01-19T16:17:05.836Z,99351.00
2023-01-19T16:19:32.761Z,99358.00
2023-01-19T16:21:59.794Z,99360.00
2023-01-19T16:24:26.617Z,99360.00
2023-01-19T16:26:53.572Z,99361.00
2023-01-19T16:29:21.147Z,99376.00
2023-01-19T16:31:48.148Z,99371.00
2023-01-19T16:34:15.104Z,99370.00
2023-01-19T16:36:42.924Z,99368.00
2023-01-19T16:39:16.196Z,99373.00
2023-01-19T16:41:45.390Z,99374.00
2023-01-19T16:44:15.089Z,99368.00
2023-01-19T16:46:45.883Z,99365.00
2023-01-19T16:49:21.270Z,99367.00
2023-01-19T16:51:49.246Z,99376.00
2023-01-19T16:54:21.624Z,99371.00
2023-01-19T16:56:49.769Z,99371.00
2023-01-19T16:59:18.083Z,99374.00
2023-01-19T17:01:45.911Z,99374.00
2023-01-19T17:04:14.139Z,99379.00
2023-01-19T17:06:41.314Z,99378.00
2023-01-19T17:09:11.957Z,99379.00
2023-01-19T17:11:42.710Z,99389.00
2023-01-19T17:14:16.653Z,99389.00
2023-01-19T17:16:44.425Z,99389.00
2023-01-19T17:19:17.653Z,99395.00
2023-01-19T17:21:48.779Z,99393.00
2023-01-19T17:24:17.006Z,99387.00
2023-01-19T17:26:48.630Z,99392.00
2023-01-19T17:29:16.899Z,99392.00
2023-01-19T17:31:44.541Z,99386.00
2023-01-19T17:34:11.635Z,99357.00
2023-01-19T17:36:40.998Z,99388.00
2023-01-19T17:39:14.625Z,99394.00
2023-01-19T17:41:41.679Z,99390.00
2023-01-19T17:44:10.775Z,99393.00
2023-01-19T17:46:38.997Z,99392.00
2023-01-19T17:49:07.923Z,99389.00
2023-01-19T17:51:35.811Z,99381.00
2023-01-19T17:54:04.112Z,99389.00
2023-01-19T17:56:36.777Z,99382.00
2023-01-19T17:59:07.919Z,99361.00
2023-01-19T18:01:40.038Z,99386.00
2023-01-19T18:04:09.356Z,99388.00
2023-01-19T18:06:37.963Z,99396.00
2023-01-19T18:09:07.609Z,99378.00
2023-01-19T18:11:35.766Z,99387.00
2023-01-19T18:14:02.936Z,99387.00
2023-01-19T18:16:30.833Z,99401.00
2023-01-19T18:18:58.328Z,99413.00
2023-01-19T18:21:28.303Z,99416.00
2023-01-19T18:24:04.657Z,99412.00
2023-01-19T18:26:33.896Z,99409.00
2023-01-19T18:29:02.056Z,99411.00
2023-01-19T18:31:29.507Z,99405.00
2023-01-19T18:33:56.927Z,99396.00
2023-01-19T18:36:23.876Z,99409.00
2023-01-19T18:38:51.375Z,99405.00
2023-01-19T18:41:21.638Z,99405.00
2023-01-19T18:43:49.272Z,99404.00
2023-01-19T18:46:16.861Z,99402.00
2023-01-19T18:48:44.567Z,99406.00
2023-01-19T18:51:14.977Z,99405.00
2023-01-19T18:53:43.756Z,99413.00
2023-01-19T18:56:16.081Z,99405.00
2023-01-19T18:58:44.238Z,99402.00
2023-01-19T19:01:37.986Z,99410.00
2023-01-19T19:04:05.699Z,99415.00
2023-01-19T19:06:32.672Z,99412.00
2023-01-19T19:09:00.722Z,99402.00
2023-01-19T19:11:28.547Z,99401.00
2023-01-19T19:14:02.409Z,99401.00
2023-01-19T19:16:31.672Z,99412.00
2023-01-19T19:19:00.444Z,99407.00
2023-01-19T19:21:27.944Z,99413.00
2023-01-19T19:23:57.663Z,99407.00
2023-01-19T19:26:28.373Z,99392.00
2023-01-19T19:28:55.688Z,99406.00
2023-01-19T19:31:26.044Z,99407.00
2023-01-19T19:33:56.952Z,99410.00
2023-01-19T19:36:25.922Z,99417.00
2023-01-19T19:38:53.689Z,99415.00
2023-01-19T19:41:24.538Z,99414.00
2023-01-19T19:43:51.557Z,99407.00
2023-01-19T19:46:21.238Z,99405.00
2023-01-19T19:48:49.350Z,99394.00
2023-01-19T19:51:23.462Z,99401.00
2023-01-19T19:53:52.487Z,99410.00
2023-01-19T19:56:23.054Z,99410.00
2023-01-19T19:58:52.002Z,99400.00
2023-01-19T20:01:27.239Z,99395.00
2023-01-19T20:03:55.751Z,99414.00
2023-01-19T20:06:26.365Z,99422.00
2023-01-19T20:08:56.278Z,99412.00
2023-01-19T20:11:27.729Z,99415.00
2023-01-19T20:13:54.875Z,99417.00
2023-01-19T20:16:23.715Z,99425.00
2023-01-19T20:18:54.379Z,99418.00
2023-01-19T20:21:26.410Z,99420.00
2023-01-19T20:23:55.787Z,99426.00
2023-01-19T20:26:27.880Z,99429.00
2023-01-19T20:28:59.681Z,99412.00
2023-01-19T20:31:37.333Z,99433.00
2023-01-19T20:34:08.257Z,99439.00
2023-01-19T20:36:36.693Z,99430.00
2023-01-19T20:39:10.117Z,99435.00
2023-01-19T20:41:43.862Z,99442.00
2023-01-19T20:44:18.805Z,99442.00
2023-01-19T20:46:46.385Z,99437.00
2023-01-19T20:49:14.217Z,99436.00
2023-01-19T20:51:43.553Z,99439.00
2023-01-19T20:54:17.201Z,99438.00
2023-01-19T20:56:45.179Z,99437.00
2023-01-19T20:59:13.369Z,99441.00
2023-01-19T21:01:41.719Z,99440.00
2023-01-19T21:04:09.571Z,99447.00
2023-01-19T21:06:38.293Z,99446.00
2023-01-19T21:09:08.319Z,99442.00
2023-01-19T21:11:37.776Z,99449.00
2023-01-19T21:14:05.894Z,99442.00
2023-01-19T21:16:35.191Z,99446.00
2023-01-19T21:19:02.652Z,99421.00
2023-01-19T21:21:31.512Z,99438.00
2023-01-19T21:24:03.588Z,99447.00
2023-01-19T21:26:33.211Z,99453.00
2023-01-19T21:29:02.358Z,99461.00
2023-01-19T21:31:29.809Z,99457.00
2023-01-19T21:33:57.808Z,99464.00
2023-01-19T21:36:25.793Z,99468.00
2023-01-19T21:38:55.416Z,99467.00
2023-01-19T21:41:22.915Z,99471.00
2023-01-19T21:43:49.828Z,99470.00
2023-01-19T21:46:20.773Z,99477.00
2023-01-19T21:48:48.452Z,99469.00
2023-01-19T21:51:16.435Z,99477.00
2023-01-19T21:53:43.951Z,99483.00
2023-01-19T21:56:11.554Z,99475.00
2023-01-19T21:58:39.068Z,99479.00
2023-01-19T22:01:13.714Z,99488.00
2023-01-19T22:03:41.953Z,99492.00
2023-01-19T22:06:14.305Z,99492.00
2023-01-19T22:08:42.488Z,99453.00
2023-01-19T22:11:12.490Z,99482.00
2023-01-19T22:13:40.463Z,99488.00
2023-01-19T22:16:15.170Z,99481.00
2023-01-19T22:18:45.931Z,99479.00
2023-01-19T22:21:17.264Z,99481.00
2023-01-19T22:23:44.474Z,99479.00
2023-01-19T22:26:12.230Z,99479.00
2023-01-19T22:28:39.523Z,99485.00
2023-01-19T22:31:13.547Z,99482.00
2023-01-19T22:33:41.269Z,99483.00
2023-01-19T22:36:23.664Z,99482.00
2023-01-19T22:38:57.447Z,99491.00
2023-01-19T22:41:42.298Z,99491.00
2023-01-19T22:44:23.432Z,99504.00
2023-01-19T22:46:55.155Z,99502.00
2023-01-19T22:49:22.273Z,99473.00
2023-01-19T22:51:49.315Z,99505.00
2023-01-19T22:54:16.362Z,99493.00
2023-01-19T22:56:46.021Z,99513.00
2023-01-19T22:59:13.036Z,99506.00
2023-01-19T23:01:44.484Z,99507.00
2023-01-19T23:04:15.726Z,99514.00
2023-01-19T23:06:43.153Z,99514.00
2023-01-19T23:09:14.591Z,99524.00
2023-01-19T23:11:45.058Z,99520.00
2023-01-19T23:14:16.849Z,99516.00
2023-01-19T23:16:43.935Z,99530.00
2023-01-19T23:19:12.922Z,99537.00
2023-01-19T23:21:40.680Z,99532.00
2023-01-19T23:24:08.355Z,99510.00
2023-01-19T23:26:38.403Z,99530.00
2023-01-19T23:29:12.549Z,99530.00
2023-01-19T23:31:44.189Z,99530.00
2023-01-19T23:34:13.831Z,99536.00
2023-01-19T23:36:43.789Z,99542.00
2023-01-19T23:39:22.182Z,99540.00
2023-01-19T23:41:49.834Z,99525.00
2023-01-19T23:44:18.038Z,99543.00
2023-01-19T23:46:45.838Z,99539.00
2023-01-19T23:49:13.647Z,99561.00
2023-01-19T23:51:41.412Z,99553.00
2023-01-19T23:54:08.734Z,99539.00
2023-01-19T23:56:38.130Z,99560.00
2023-01-19T23:59:12.155Z,99554.00
